Michael Mccreery — WDF2469 — position and weather

sailwx.info

Track history (hours):
 
Tides and Currents Weather Stations Pressure Air Temp Water Temp Dewpoint Dewpoint Depression Visibility Wind Speed Wind Dir Waves Ship Positions

Michael Mccreery

Owner: Kirby Inland Marine, LP, Houston, TX. More information available from US FCC via Universal Licensing System and Coast Guard Vessel Documentation Center.

Last reported at 2018-Feb-24 03:08 UTC. Time now 2018-Feb-24 14:28 UTC.
Position N 29°34' W 090°32'.

MMSI: 366986392.

Date/timePositionNaut miles runAvg speedWind from/ knotsBaromVisibWave heightAir tempDewpointWater temp
2018-Feb-24 03:08N 29°34' W 090°32'1 4.7
2018-Feb-24 02:52N 29°34' W 090°34'2 4.0
2018-Feb-24 02:28N 29°35' W 090°35'2 3.7
2018-Feb-24 02:00N 29°35' W 090°37'2 4.5
2018-Feb-24 01:30N 29°36' W 090°39'2 4.5
2018-Feb-24 00:59N 29°37' W 090°42'2 3.4
2018-Feb-24 00:30N 29°35' W 090°43'2 3.2
2018-Feb-24 00:00N 29°34' W 090°43'0 0.4
2018-Feb-23 23:30N 29°34' W 090°44'0 0.0
2018-Feb-23 23:00N 29°34' W 090°44'0 0.1
2018-Feb-23 22:30N 29°34' W 090°44'2 3.9
2018-Feb-23 22:00N 29°33' W 090°45'0 0.8
2018-Feb-23 21:30N 29°32' W 090°46'2 3.3
2018-Feb-23 21:00N 29°32' W 090°48'0 0.3
2018-Feb-23 20:30N 29°32' W 090°48'1 1.6
2018-Feb-23 20:00N 29°32' W 090°49'63 2.8
2018-Feb-22 21:13N 29°50' W 091°58'2 5.4
2018-Feb-22 20:46N 29°50' W 092°01'1 5.5
2018-Feb-22 20:30N 29°49' W 092°02'3 5.5
2018-Feb-22 19:58N 29°48' W 092°05'3 5.6
2018-Feb-22 19:30N 29°47' W 092°08'2 4.7
2018-Feb-22 18:58N 29°47' W 092°11'1 3.1
2018-Feb-22 18:30N 29°47' W 092°12'2 3.2
2018-Feb-22 18:00N 29°48' W 092°14'2 5.0
2018-Feb-22 17:30N 29°49' W 092°17'2 4.2
2018-Feb-22 16:58N 29°50' W 092°19'2 4.8
2018-Feb-22 16:30N 29°51' W 092°21'51 4.2
2018-Feb-22 04:23N 30°05' W 093°18'1 1.6
2018-Feb-22 03:36N 30°06' W 093°19'10 3.3
2018-Feb-22 00:31N 30°04' W 093°30'5 4.9
2018-Feb-21 23:32N 30°04' W 093°36'1 5.1
2018-Feb-21 23:26N 30°04' W 093°36'3 5.5
2018-Feb-21 22:52N 30°03' W 093°40'2 5.4
2018-Feb-21 22:30N 30°03' W 093°42'3 5.3
2018-Feb-21 22:00N 30°01' W 093°44'3 6.2
2018-Feb-21 21:30N 29°59' W 093°47'3 6.1
2018-Feb-21 21:01N 29°58' W 093°51'2 4.5
2018-Feb-21 20:31N 29°56' W 093°52'3 6.1
2018-Feb-21 20:00N 29°54' W 093°54'3 5.9
2018-Feb-21 19:31N 29°52' W 093°56'3 5.0
2018-Feb-21 19:00N 29°50' W 093°58'1 2.6
2018-Feb-21 18:31N 29°49' W 093°59'0 0.2
2018-Feb-21 18:01N 29°49' W 093°59'0 0.1
2018-Feb-21 17:31N 29°49' W 093°59'0 0.0
2018-Feb-21 17:01N 29°49' W 093°59'1 1.1
2018-Feb-21 16:31N 29°49' W 093°60'2 3.1
2018-Feb-21 16:00N 29°48' W 094°01'2 3.2
2018-Feb-21 15:30N 29°47' W 094°02'1 2.5
2018-Feb-21 15:00N 29°46' W 094°03'1 2.6
2018-Feb-21 14:31N 29°45' W 094°04'1 2.7
2018-Feb-21 14:00N 29°44' W 094°06'1 2.8
2018-Feb-21 13:30N 29°43' W 094°07'0 0.6
2018-Feb-21 13:00N 29°43' W 094°07'0 0.0
2018-Feb-21 12:30N 29°43' W 094°07'0 0.0
2018-Feb-21 12:00N 29°43' W 094°07'0 0.0
2018-Feb-21 11:30N 29°43' W 094°07'0 0.1
2018-Feb-21 11:00N 29°43' W 094°07'0 0.0
2018-Feb-21 10:30N 29°43' W 094°07'0 0.0
2018-Feb-21 10:01N 29°43' W 094°07'0 0.0
2018-Feb-21 09:31N 29°43' W 094°07'0 0.0
2018-Feb-21 09:01N 29°43' W 094°07'0 0.0
2018-Feb-21 08:30N 29°43' W 094°07'0 0.0
2018-Feb-21 08:01N 29°43' W 094°07'0 0.0
2018-Feb-21 07:30N 29°43' W 094°07'0 0.0
2018-Feb-21 07:00N 29°43' W 094°07'0 0.0
2018-Feb-21 06:31N 29°43' W 094°07'0 0.0
2018-Feb-21 06:00N 29°43' W 094°07'0 0.0
2018-Feb-21 05:31N 29°43' W 094°07'0 0.0
2018-Feb-21 05:00N 29°43' W 094°07'0 0.0
2018-Feb-21 04:30N 29°43' W 094°07'0 0.0
2018-Feb-21 04:00N 29°43' W 094°07'0 0.2
2018-Feb-21 03:30N 29°43' W 094°07'1 3.0
2018-Feb-21 03:00N 29°42' W 094°09'2 3.7
2018-Feb-21 02:30N 29°41' W 094°11'2 4.0
2018-Feb-21 02:00N 29°41' W 094°13'2 4.6
2018-Feb-21 01:30N 29°39' W 094°15'2 4.5
2018-Feb-21 01:00N 29°38' W 094°17'2 4.5
2018-Feb-21 00:28N 29°37' W 094°20'2 3.8
2018-Feb-21 00:00N 29°36' W 094°22'2 3.5
2018-Feb-20 23:21N 29°36' W 094°24'2 4.0
2018-Feb-20 22:47N 29°34' W 094°26'2 4.2
2018-Feb-20 22:21N 29°34' W 094°28'2 4.4
2018-Feb-20 22:00N 29°32' W 094°29'5 0.5
2018-Feb-20 13:07N 29°30' W 094°33'0 0.1
2018-Feb-20 13:00N 29°30' W 094°33'0 0.0
2018-Feb-20 09:35N 29°30' W 094°33'0 0.2
2018-Feb-20 09:27N 29°30' W 094°33'5 2.7
2018-Feb-20 07:39N 29°28' W 094°38'1 3.7
2018-Feb-20 07:28N 29°28' W 094°39'2 4.3
2018-Feb-20 07:00N 29°27' W 094°41'2 4.2
2018-Feb-20 06:28N 29°26' W 094°43'2 3.6
2018-Feb-20 06:00N 29°24' W 094°45'0 0.0
2018-Feb-20 04:06N 29°24' W 094°45'0 0.0
2018-Feb-20 03:59N 29°24' W 094°45'9 0.5
2018-Feb-19 09:09N 29°22' W 094°55'0 0.0
2018-Feb-19 08:57N 29°22' W 094°55'0 0.0
2018-Feb-19 08:21N 29°22' W 094°55'0 0.0
2018-Feb-19 07:57N 29°22' W 094°55'0 0.0
2018-Feb-19 07:30N 29°22' W 094°55'0 0.0
2018-Feb-19 06:51N 29°22' W 094°55'0 0.0
2018-Feb-19 05:33N 29°22' W 094°55'0 0.0
2018-Feb-19 05:27N 29°22' W 094°55'11 0.5
2018-Feb-18 07:50N 29°25' W 094°43'17 0.8
2018-Feb-17 12:06N 29°34' W 094°27'0 0.0
2018-Feb-17 11:51N 29°34' W 094°27'0 0.0
2018-Feb-17 11:28N 29°34' W 094°27'0 0.0
2018-Feb-17 09:48N 29°34' W 094°27'0 0.0
2018-Feb-17 09:13N 29°34' W 094°27'0 0.0
2018-Feb-17 08:53N 29°34' W 094°27'0 0.0
2018-Feb-17 08:26N 29°34' W 094°27'0 0.0
2018-Feb-17 06:16N 29°34' W 094°27'0 0.0
2018-Feb-17 05:49N 29°34' W 094°27'0 0.0
2018-Feb-17 05:27N 29°34' W 094°27'0 0.0
2018-Feb-17 04:47N 29°34' W 094°27'0 0.0
2018-Feb-17 03:43N 29°34' W 094°27'0 0.0
2018-Feb-17 03:26N 29°34' W 094°27'0 0.0
2018-Feb-17 02:58N 29°34' W 094°27'0 0.0
2018-Feb-17 02:30N 29°34' W 094°27'0 0.0
2018-Feb-17 00:16N 29°34' W 094°27'1 1.1
2018-Feb-16 23:49N 29°34' W 094°26'2 5.1
2018-Feb-16 23:29N 29°35' W 094°25'3 5.2
2018-Feb-16 22:58N 29°36' W 094°22'1 1.1
2018-Feb-16 22:30N 29°37' W 094°22'3 5.1
2018-Feb-16 22:00N 29°38' W 094°19'1 2.9
2018-Feb-16 21:30N 29°38' W 094°18'0 0.0
2018-Feb-16 20:58N 29°38' W 094°18'1 1.7
2018-Feb-16 20:23N 29°39' W 094°17'2 6.1
2018-Feb-16 19:59N 29°40' W 094°14'3 6.1
2018-Feb-16 19:30N 29°41' W 094°11'3 5.9
2018-Feb-16 18:59N 29°42' W 094°08'3 6.3
2018-Feb-16 18:30N 29°44' W 094°05'3 6.0
2018-Feb-16 18:00N 29°46' W 094°02'3 6.1
2018-Feb-16 17:30N 29°48' W 093°60'2 3.6
2018-Feb-16 17:00N 29°49' W 093°58'0 0.0
2018-Feb-16 16:30N 29°49' W 093°58'0 0.0
2018-Feb-16 16:00N 29°49' W 093°58'1 2.1
2018-Feb-16 15:30N 29°50' W 093°57'1 2.1
2018-Feb-16 15:00N 29°51' W 093°57'0 0.0
2018-Feb-16 14:30N 29°51' W 093°57'0 0.0
2018-Feb-16 13:59N 29°51' W 093°57'0 0.0
2018-Feb-16 13:28N 29°51' W 093°57'0 0.0
2018-Feb-16 13:00N 29°51' W 093°57'0 0.0
2018-Feb-16 12:27N 29°51' W 093°57'0 0.0
2018-Feb-16 12:00N 29°51' W 093°57'0 0.0
2018-Feb-16 11:28N 29°51' W 093°57'0 0.0
2018-Feb-16 11:00N 29°51' W 093°57'0 0.0
2018-Feb-16 10:30N 29°51' W 093°57'0 0.0
2018-Feb-16 09:59N 29°51' W 093°57'0 0.0
2018-Feb-16 09:30N 29°51' W 093°57'0 0.0
2018-Feb-16 09:00N 29°51' W 093°57'0 0.0
2018-Feb-16 08:29N 29°51' W 093°57'0 0.0
2018-Feb-16 08:00N 29°51' W 093°57'0 0.0
2018-Feb-16 07:29N 29°51' W 093°57'0 0.0
2018-Feb-16 07:00N 29°51' W 093°57'0 0.0
2018-Feb-16 06:30N 29°51' W 093°57'0 0.0
2018-Feb-16 06:00N 29°51' W 093°57'0 0.0
2018-Feb-16 05:30N 29°51' W 093°57'0 0.0
2018-Feb-16 05:00N 29°51' W 093°57'0 0.3
2018-Feb-16 04:30N 29°51' W 093°57'0 0.0
2018-Feb-16 04:00N 29°51' W 093°57'0 0.0
2018-Feb-16 03:30N 29°51' W 093°57'0 0.0
2018-Feb-16 03:00N 29°51' W 093°57'0 0.0
2018-Feb-16 02:30N 29°51' W 093°57'0 0.2
2018-Feb-16 02:00N 29°51' W 093°57'3 5.0
2018-Feb-16 01:30N 29°53' W 093°55'3 5.8
2018-Feb-16 01:00N 29°55' W 093°53'4 7.0
2018-Feb-16 00:30N 29°58' W 093°51'4 7.7
2018-Feb-16 00:00N 29°60' W 093°47'3 5.3
2018-Feb-15 23:30N 30°01' W 093°45'3 5.5
2018-Feb-15 23:00N 30°03' W 093°42'3 6.0
2018-Feb-15 22:29N 30°04' W 093°39'4 5.7
2018-Feb-15 21:49N 30°04' W 093°34'2 5.4
2018-Feb-15 21:28N 30°04' W 093°32'3 5.5
2018-Feb-15 20:59N 30°04' W 093°29'1 2.1
2018-Feb-15 20:30N 30°04' W 093°28'3 5.6
2018-Feb-15 20:00N 30°04' W 093°25'2 4.9
2018-Feb-15 19:30N 30°04' W 093°22'2 3.3
2018-Feb-15 19:00N 30°05' W 093°20'2 4.6
2018-Feb-15 18:30N 30°06' W 093°18'0 0.2
2018-Feb-15 18:00N 30°06' W 093°18'0 0.0
2018-Feb-15 17:30N 30°06' W 093°18'0 0.0
2018-Feb-15 17:00N 30°06' W 093°18'0 0.0
2018-Feb-15 16:30N 30°06' W 093°18'0 0.0
2018-Feb-15 16:00N 30°06' W 093°18'0 0.0
2018-Feb-15 15:30N 30°06' W 093°18'0 0.0
2018-Feb-15 15:00N 30°06' W 093°18'0 0.0
2018-Feb-15 14:30N 30°06' W 093°18'0 0.0
2018-Feb-15 13:56N 30°06' W 093°18'0 0.0
2018-Feb-15 13:30N 30°06' W 093°18'0 0.0
2018-Feb-15 13:00N 30°06' W 093°18'0 0.0
2018-Feb-15 12:30N 30°06' W 093°18'0 0.0
2018-Feb-15 12:00N 30°06' W 093°18'0 0.0
2018-Feb-15 11:31N 30°06' W 093°18'0 0.0
2018-Feb-15 11:00N 30°06' W 093°18'0 0.0
2018-Feb-15 10:30N 30°06' W 093°18'0 0.0
2018-Feb-15 10:01N 30°06' W 093°18'0 0.0
2018-Feb-15 09:31N 30°06' W 093°18'0 0.0
2018-Feb-15 09:01N 30°06' W 093°18'0 0.0
2018-Feb-15 08:30N 30°06' W 093°18'0 0.0
2018-Feb-15 08:00N 30°06' W 093°18'0 0.0
2018-Feb-15 07:30N 30°06' W 093°18'0 0.0
2018-Feb-15 07:00N 30°06' W 093°18'0 0.0
2018-Feb-15 06:31N 30°06' W 093°18'0 0.0
2018-Feb-15 06:00N 30°06' W 093°18'0 0.0
2018-Feb-15 05:30N 30°06' W 093°18'0 0.0
2018-Feb-15 05:00N 30°06' W 093°18'0 0.0
2018-Feb-15 04:31N 30°06' W 093°18'0 0.0
2018-Feb-15 04:01N 30°06' W 093°18'0 0.0
2018-Feb-15 03:31N 30°06' W 093°18'0 0.0
2018-Feb-15 03:00N 30°06' W 093°18'0 0.0
2018-Feb-15 02:22N 30°06' W 093°18'0 0.0
2018-Feb-15 02:00N 30°06' W 093°18'0 0.0
2018-Feb-15 01:29N 30°06' W 093°18'0 0.0
2018-Feb-15 01:00N 30°06' W 093°18'0 1.0
2018-Feb-15 00:30N 30°06' W 093°18'2 3.9
2018-Feb-15 00:01N 30°04' W 093°16'0 0.2
2018-Feb-14 23:30N 30°04' W 093°16'0 0.0
2018-Feb-14 23:01N 30°04' W 093°16'0 0.0
2018-Feb-14 22:30N 30°04' W 093°16'0 0.0
2018-Feb-14 22:00N 30°04' W 093°16'0 0.0
2018-Feb-14 21:31N 30°04' W 093°16'0 0.1
2018-Feb-14 21:00N 30°04' W 093°16'0 0.2
2018-Feb-14 20:30N 30°04' W 093°16'3 5.5
2018-Feb-14 20:01N 30°02' W 093°15'3 6.0
2018-Feb-14 19:30N 29°60' W 093°13'3 6.6
2018-Feb-14 19:00N 29°57' W 093°10'6 3.1
2018-Feb-14 17:09N 29°56' W 093°04'  
Track history (hours):
 
Tides and Currents Weather Stations Pressure Air Temp Water Temp Dewpoint Dewpoint Depression Visibility Wind Speed Wind Dir Waves Ship Positions

Michael Mccreery

Owner: Kirby Inland Marine, LP, Houston, TX. More information available from US FCC via Universal Licensing System and Coast Guard Vessel Documentation Center.

Last reported at 2018-Feb-24 03:08 UTC. Time now 2018-Feb-24 14:28 UTC.
Position N 29°34' W 090°32'.

MMSI: 366986392.

Date/timePositionNaut miles runAvg speedWind from/ knotsBaromVisibWave heightAir tempDewpointWater temp
2018-Feb-24 03:08N 29°34' W 090°32'1 4.7
2018-Feb-24 02:52N 29°34' W 090°34'2 4.0
2018-Feb-24 02:28N 29°35' W 090°35'2 3.7
2018-Feb-24 02:00N 29°35' W 090°37'2 4.5
2018-Feb-24 01:30N 29°36' W 090°39'2 4.5
2018-Feb-24 00:59N 29°37' W 090°42'2 3.4
2018-Feb-24 00:30N 29°35' W 090°43'2 3.2
2018-Feb-24 00:00N 29°34' W 090°43'0 0.4
2018-Feb-23 23:30N 29°34' W 090°44'0 0.0
2018-Feb-23 23:00N 29°34' W 090°44'0 0.1
2018-Feb-23 22:30N 29°34' W 090°44'2 3.9
2018-Feb-23 22:00N 29°33' W 090°45'0 0.8
2018-Feb-23 21:30N 29°32' W 090°46'2 3.3
2018-Feb-23 21:00N 29°32' W 090°48'0 0.3
2018-Feb-23 20:30N 29°32' W 090°48'1 1.6
2018-Feb-23 20:00N 29°32' W 090°49'63 2.8
2018-Feb-22 21:13N 29°50' W 091°58'2 5.4
2018-Feb-22 20:46N 29°50' W 092°01'1 5.5
2018-Feb-22 20:30N 29°49' W 092°02'3 5.5
2018-Feb-22 19:58N 29°48' W 092°05'3 5.6
2018-Feb-22 19:30N 29°47' W 092°08'2 4.7
2018-Feb-22 18:58N 29°47' W 092°11'1 3.1
2018-Feb-22 18:30N 29°47' W 092°12'2 3.2
2018-Feb-22 18:00N 29°48' W 092°14'2 5.0
2018-Feb-22 17:30N 29°49' W 092°17'2 4.2
2018-Feb-22 16:58N 29°50' W 092°19'2 4.8
2018-Feb-22 16:30N 29°51' W 092°21'51 4.2
2018-Feb-22 04:23N 30°05' W 093°18'1 1.6
2018-Feb-22 03:36N 30°06' W 093°19'10 3.3
2018-Feb-22 00:31N 30°04' W 093°30'5 4.9
2018-Feb-21 23:32N 30°04' W 093°36'1 5.1
2018-Feb-21 23:26N 30°04' W 093°36'3 5.5
2018-Feb-21 22:52N 30°03' W 093°40'2 5.4
2018-Feb-21 22:30N 30°03' W 093°42'3 5.3
2018-Feb-21 22:00N 30°01' W 093°44'3 6.2
2018-Feb-21 21:30N 29°59' W 093°47'3 6.1
2018-Feb-21 21:01N 29°58' W 093°51'2 4.5
2018-Feb-21 20:31N 29°56' W 093°52'3 6.1
2018-Feb-21 20:00N 29°54' W 093°54'3 5.9
2018-Feb-21 19:31N 29°52' W 093°56'3 5.0
2018-Feb-21 19:00N 29°50' W 093°58'1 2.6
2018-Feb-21 18:31N 29°49' W 093°59'0 0.2
2018-Feb-21 18:01N 29°49' W 093°59'0 0.1
2018-Feb-21 17:31N 29°49' W 093°59'0 0.0
2018-Feb-21 17:01N 29°49' W 093°59'1 1.1
2018-Feb-21 16:31N 29°49' W 093°60'2 3.1
2018-Feb-21 16:00N 29°48' W 094°01'2 3.2
2018-Feb-21 15:30N 29°47' W 094°02'1 2.5
2018-Feb-21 15:00N 29°46' W 094°03'1 2.6
2018-Feb-21 14:31N 29°45' W 094°04'1 2.7
2018-Feb-21 14:00N 29°44' W 094°06'1 2.8
2018-Feb-21 13:30N 29°43' W 094°07'0 0.6
2018-Feb-21 13:00N 29°43' W 094°07'0 0.0
2018-Feb-21 12:30N 29°43' W 094°07'0 0.0
2018-Feb-21 12:00N 29°43' W 094°07'0 0.0
2018-Feb-21 11:30N 29°43' W 094°07'0 0.1
2018-Feb-21 11:00N 29°43' W 094°07'0 0.0
2018-Feb-21 10:30N 29°43' W 094°07'0 0.0
2018-Feb-21 10:01N 29°43' W 094°07'0 0.0
2018-Feb-21 09:31N 29°43' W 094°07'0 0.0
2018-Feb-21 09:01N 29°43' W 094°07'0 0.0
2018-Feb-21 08:30N 29°43' W 094°07'0 0.0
2018-Feb-21 08:01N 29°43' W 094°07'0 0.0
2018-Feb-21 07:30N 29°43' W 094°07'0 0.0
2018-Feb-21 07:00N 29°43' W 094°07'0 0.0
2018-Feb-21 06:31N 29°43' W 094°07'0 0.0
2018-Feb-21 06:00N 29°43' W 094°07'0 0.0
2018-Feb-21 05:31N 29°43' W 094°07'0 0.0
2018-Feb-21 05:00N 29°43' W 094°07'0 0.0
2018-Feb-21 04:30N 29°43' W 094°07'0 0.0
2018-Feb-21 04:00N 29°43' W 094°07'0 0.2
2018-Feb-21 03:30N 29°43' W 094°07'1 3.0
2018-Feb-21 03:00N 29°42' W 094°09'2 3.7
2018-Feb-21 02:30N 29°41' W 094°11'2 4.0
2018-Feb-21 02:00N 29°41' W 094°13'2 4.6
2018-Feb-21 01:30N 29°39' W 094°15'2 4.5
2018-Feb-21 01:00N 29°38' W 094°17'2 4.5
2018-Feb-21 00:28N 29°37' W 094°20'2 3.8
2018-Feb-21 00:00N 29°36' W 094°22'2 3.5
2018-Feb-20 23:21N 29°36' W 094°24'2 4.0
2018-Feb-20 22:47N 29°34' W 094°26'2 4.2
2018-Feb-20 22:21N 29°34' W 094°28'2 4.4
2018-Feb-20 22:00N 29°32' W 094°29'5 0.5
2018-Feb-20 13:07N 29°30' W 094°33'0 0.1
2018-Feb-20 13:00N 29°30' W 094°33'0 0.0
2018-Feb-20 09:35N 29°30' W 094°33'0 0.2
2018-Feb-20 09:27N 29°30' W 094°33'5 2.7
2018-Feb-20 07:39N 29°28' W 094°38'1 3.7
2018-Feb-20 07:28N 29°28' W 094°39'2 4.3
2018-Feb-20 07:00N 29°27' W 094°41'2 4.2
2018-Feb-20 06:28N 29°26' W 094°43'2 3.6
2018-Feb-20 06:00N 29°24' W 094°45'0 0.0
2018-Feb-20 04:06N 29°24' W 094°45'0 0.0
2018-Feb-20 03:59N 29°24' W 094°45'9 0.5
2018-Feb-19 09:09N 29°22' W 094°55'0 0.0
2018-Feb-19 08:57N 29°22' W 094°55'0 0.0
2018-Feb-19 08:21N 29°22' W 094°55'0 0.0
2018-Feb-19 07:57N 29°22' W 094°55'0 0.0
2018-Feb-19 07:30N 29°22' W 094°55'0 0.0
2018-Feb-19 06:51N 29°22' W 094°55'0 0.0
2018-Feb-19 05:33N 29°22' W 094°55'0 0.0
2018-Feb-19 05:27N 29°22' W 094°55'11 0.5
2018-Feb-18 07:50N 29°25' W 094°43'17 0.8
2018-Feb-17 12:06N 29°34' W 094°27'0 0.0
2018-Feb-17 11:51N 29°34' W 094°27'0 0.0
2018-Feb-17 11:28N 29°34' W 094°27'0 0.0
2018-Feb-17 09:48N 29°34' W 094°27'0 0.0
2018-Feb-17 09:13N 29°34' W 094°27'0 0.0
2018-Feb-17 08:53N 29°34' W 094°27'0 0.0
2018-Feb-17 08:26N 29°34' W 094°27'0 0.0
2018-Feb-17 06:16N 29°34' W 094°27'0 0.0
2018-Feb-17 05:49N 29°34' W 094°27'0 0.0
2018-Feb-17 05:27N 29°34' W 094°27'0 0.0
2018-Feb-17 04:47N 29°34' W 094°27'0 0.0
2018-Feb-17 03:43N 29°34' W 094°27'0 0.0
2018-Feb-17 03:26N 29°34' W 094°27'0 0.0
2018-Feb-17 02:58N 29°34' W 094°27'0 0.0
2018-Feb-17 02:30N 29°34' W 094°27'0 0.0
2018-Feb-17 00:16N 29°34' W 094°27'1 1.1
2018-Feb-16 23:49N 29°34' W 094°26'2 5.1
2018-Feb-16 23:29N 29°35' W 094°25'3 5.2
2018-Feb-16 22:58N 29°36' W 094°22'1 1.1
2018-Feb-16 22:30N 29°37' W 094°22'3 5.1
2018-Feb-16 22:00N 29°38' W 094°19'1 2.9
2018-Feb-16 21:30N 29°38' W 094°18'0 0.0
2018-Feb-16 20:58N 29°38' W 094°18'1 1.7
2018-Feb-16 20:23N 29°39' W 094°17'2 6.1
2018-Feb-16 19:59N 29°40' W 094°14'3 6.1
2018-Feb-16 19:30N 29°41' W 094°11'3 5.9
2018-Feb-16 18:59N 29°42' W 094°08'3 6.3
2018-Feb-16 18:30N 29°44' W 094°05'3 6.0
2018-Feb-16 18:00N 29°46' W 094°02'3 6.1
2018-Feb-16 17:30N 29°48' W 093°60'2 3.6
2018-Feb-16 17:00N 29°49' W 093°58'0 0.0
2018-Feb-16 16:30N 29°49' W 093°58'0 0.0
2018-Feb-16 16:00N 29°49' W 093°58'1 2.1
2018-Feb-16 15:30N 29°50' W 093°57'1 2.1
2018-Feb-16 15:00N 29°51' W 093°57'0 0.0
2018-Feb-16 14:30N 29°51' W 093°57'0 0.0
2018-Feb-16 13:59N 29°51' W 093°57'0 0.0
2018-Feb-16 13:28N 29°51' W 093°57'0 0.0
2018-Feb-16 13:00N 29°51' W 093°57'0 0.0
2018-Feb-16 12:27N 29°51' W 093°57'0 0.0
2018-Feb-16 12:00N 29°51' W 093°57'0 0.0
2018-Feb-16 11:28N 29°51' W 093°57'0 0.0
2018-Feb-16 11:00N 29°51' W 093°57'0 0.0
2018-Feb-16 10:30N 29°51' W 093°57'0 0.0
2018-Feb-16 09:59N 29°51' W 093°57'0 0.0
2018-Feb-16 09:30N 29°51' W 093°57'0 0.0
2018-Feb-16 09:00N 29°51' W 093°57'0 0.0
2018-Feb-16 08:29N 29°51' W 093°57'0 0.0
2018-Feb-16 08:00N 29°51' W 093°57'0 0.0
2018-Feb-16 07:29N 29°51' W 093°57'0 0.0
2018-Feb-16 07:00N 29°51' W 093°57'0 0.0
2018-Feb-16 06:30N 29°51' W 093°57'0 0.0
2018-Feb-16 06:00N 29°51' W 093°57'0 0.0
2018-Feb-16 05:30N 29°51' W 093°57'0 0.0
2018-Feb-16 05:00N 29°51' W 093°57'0 0.3
2018-Feb-16 04:30N 29°51' W 093°57'0 0.0
2018-Feb-16 04:00N 29°51' W 093°57'0 0.0
2018-Feb-16 03:30N 29°51' W 093°57'0 0.0
2018-Feb-16 03:00N 29°51' W 093°57'0 0.0
2018-Feb-16 02:30N 29°51' W 093°57'0 0.2
2018-Feb-16 02:00N 29°51' W 093°57'3 5.0
2018-Feb-16 01:30N 29°53' W 093°55'3 5.8
2018-Feb-16 01:00N 29°55' W 093°53'4 7.0
2018-Feb-16 00:30N 29°58' W 093°51'4 7.7
2018-Feb-16 00:00N 29°60' W 093°47'3 5.3
2018-Feb-15 23:30N 30°01' W 093°45'3 5.5
2018-Feb-15 23:00N 30°03' W 093°42'3 6.0
2018-Feb-15 22:29N 30°04' W 093°39'4 5.7
2018-Feb-15 21:49N 30°04' W 093°34'2 5.4
2018-Feb-15 21:28N 30°04' W 093°32'3 5.5
2018-Feb-15 20:59N 30°04' W 093°29'1 2.1
2018-Feb-15 20:30N 30°04' W 093°28'3 5.6
2018-Feb-15 20:00N 30°04' W 093°25'2 4.9
2018-Feb-15 19:30N 30°04' W 093°22'2 3.3
2018-Feb-15 19:00N 30°05' W 093°20'2 4.6
2018-Feb-15 18:30N 30°06' W 093°18'0 0.2
2018-Feb-15 18:00N 30°06' W 093°18'0 0.0
2018-Feb-15 17:30N 30°06' W 093°18'0 0.0
2018-Feb-15 17:00N 30°06' W 093°18'0 0.0
2018-Feb-15 16:30N 30°06' W 093°18'0 0.0
2018-Feb-15 16:00N 30°06' W 093°18'0 0.0
2018-Feb-15 15:30N 30°06' W 093°18'0 0.0
2018-Feb-15 15:00N 30°06' W 093°18'0 0.0
2018-Feb-15 14:30N 30°06' W 093°18'0 0.0
2018-Feb-15 13:56N 30°06' W 093°18'0 0.0
2018-Feb-15 13:30N 30°06' W 093°18'0 0.0
2018-Feb-15 13:00N 30°06' W 093°18'0 0.0
2018-Feb-15 12:30N 30°06' W 093°18'0 0.0
2018-Feb-15 12:00N 30°06' W 093°18'0 0.0
2018-Feb-15 11:31N 30°06' W 093°18'0 0.0
2018-Feb-15 11:00N 30°06' W 093°18'0 0.0
2018-Feb-15 10:30N 30°06' W 093°18'0 0.0
2018-Feb-15 10:01N 30°06' W 093°18'0 0.0
2018-Feb-15 09:31N 30°06' W 093°18'0 0.0
2018-Feb-15 09:01N 30°06' W 093°18'0 0.0
2018-Feb-15 08:30N 30°06' W 093°18'0 0.0
2018-Feb-15 08:00N 30°06' W 093°18'0 0.0
2018-Feb-15 07:30N 30°06' W 093°18'0 0.0
2018-Feb-15 07:00N 30°06' W 093°18'0 0.0
2018-Feb-15 06:31N 30°06' W 093°18'0 0.0
2018-Feb-15 06:00N 30°06' W 093°18'0 0.0
2018-Feb-15 05:30N 30°06' W 093°18'0 0.0
2018-Feb-15 05:00N 30°06' W 093°18'0 0.0
2018-Feb-15 04:31N 30°06' W 093°18'0 0.0
2018-Feb-15 04:01N 30°06' W 093°18'0 0.0
2018-Feb-15 03:31N 30°06' W 093°18'0 0.0
2018-Feb-15 03:00N 30°06' W 093°18'0 0.0
2018-Feb-15 02:22N 30°06' W 093°18'0 0.0
2018-Feb-15 02:00N 30°06' W 093°18'0 0.0
2018-Feb-15 01:29N 30°06' W 093°18'0 0.0
2018-Feb-15 01:00N 30°06' W 093°18'0 1.0
2018-Feb-15 00:30N 30°06' W 093°18'2 3.9
2018-Feb-15 00:01N 30°04' W 093°16'0 0.2
2018-Feb-14 23:30N 30°04' W 093°16'0 0.0
2018-Feb-14 23:01N 30°04' W 093°16'0 0.0
2018-Feb-14 22:30N 30°04' W 093°16'0 0.0
2018-Feb-14 22:00N 30°04' W 093°16'0 0.0
2018-Feb-14 21:31N 30°04' W 093°16'0 0.1
2018-Feb-14 21:00N 30°04' W 093°16'0 0.2
2018-Feb-14 20:30N 30°04' W 093°16'3 5.5
2018-Feb-14 20:01N 30°02' W 093°15'3 6.0
2018-Feb-14 19:30N 29°60' W 093°13'3 6.6
2018-Feb-14 19:00N 29°57' W 093°10'6 3.1
2018-Feb-14 17:09N 29°56' W 093°04'  

Dump ship's entire track history